createdAt,value
2023-01-17T00:02:47.750Z,19.40
2023-01-17T00:08:09.354Z,13.20
2023-01-17T00:13:12.055Z,13.60
2023-01-17T00:18:14.743Z,12.40
2023-01-17T00:24:01.185Z,15.70
2023-01-17T00:34:06.645Z,11.90
2023-01-17T00:39:09.374Z,14.90
2023-01-17T00:44:30.995Z,17.20
2023-01-17T00:49:52.250Z,18.00
2023-01-17T00:55:13.403Z,14.20
2023-01-17T01:00:37.846Z,11.60
2023-01-17T01:05:59.561Z,10.30
2023-01-17T01:11:24.762Z,16.60
2023-01-17T01:16:46.312Z,14.30
2023-01-17T01:22:08.610Z,13.10
2023-01-17T01:27:30.855Z,9.40
2023-01-17T01:32:53.292Z,11.80
2023-01-17T01:37:56.256Z,9.70
2023-01-17T01:43:00.640Z,9.20
2023-01-17T01:48:33.106Z,8.60
2023-01-17T01:53:40.331Z,8.70
2023-01-17T01:58:48.859Z,9.10
2023-01-17T02:03:52.410Z,7.60
2023-01-17T02:08:59.192Z,7.60
2023-01-17T02:14:01.968Z,6.90
2023-01-17T02:19:25.767Z,7.70
2023-01-17T02:25:06.156Z,6.60
2023-01-17T02:30:34.288Z,5.80
2023-01-17T02:36:10.240Z,5.50
2023-01-17T02:41:19.680Z,5.40
2023-01-17T02:46:22.487Z,4.50
2023-01-17T02:51:40.507Z,4.60
2023-01-17T02:57:18.468Z,4.90
2023-01-17T03:02:35.561Z,4.20
2023-01-17T03:07:41.808Z,4.30
2023-01-17T03:12:45.680Z,6.80
2023-01-17T03:17:52.302Z,4.80
2023-01-17T03:22:55.135Z,5.90
2023-01-17T03:27:57.804Z,7.10
2023-01-17T03:33:00.524Z,3.20
2023-01-17T03:38:03.475Z,3.10
2023-01-17T03:43:06.207Z,3.10
2023-01-17T03:48:08.919Z,3.10
2023-01-17T03:53:11.623Z,3.60
2023-01-17T03:58:15.632Z,4.70
2023-01-17T04:03:18.289Z,2.90
2023-01-17T04:08:21.210Z,3.20
2023-01-17T04:13:23.938Z,2.90
2023-01-17T04:18:26.943Z,4.80
2023-01-17T04:23:29.748Z,4.40
2023-01-17T04:28:32.432Z,4.40
2023-01-17T04:33:35.155Z,3.30
2023-01-17T04:38:37.873Z,4.60
2023-01-17T04:43:40.540Z,5.60
2023-01-17T04:48:43.283Z,6.30
2023-01-17T04:53:46.039Z,4.70
2023-01-17T04:58:48.725Z,5.90
2023-01-17T05:03:51.400Z,5.70
2023-01-17T05:08:54.138Z,6.20
2023-01-17T05:13:56.789Z,7.40
2023-01-17T05:18:59.448Z,9.50
2023-01-17T05:24:02.144Z,9.20
2023-01-17T05:29:04.830Z,6.60
2023-01-17T05:34:07.496Z,8.10
2023-01-17T05:39:10.227Z,11.90
2023-01-17T05:44:15.172Z,11.50
2023-01-17T05:49:17.875Z,11.20
2023-01-17T05:54:20.562Z,10.30
2023-01-17T05:59:36.539Z,14.80
2023-01-17T06:04:39.904Z,14.60
2023-01-17T06:09:42.627Z,12.50
2023-01-17T06:14:45.401Z,14.80
2023-01-17T06:19:48.109Z,12.90
2023-01-17T06:24:50.767Z,16.20
2023-01-17T06:29:53.588Z,15.30
2023-01-17T06:34:56.399Z,18.60
2023-01-17T06:39:59.054Z,17.80
2023-01-17T06:45:01.782Z,18.90
2023-01-17T06:50:05.286Z,16.20
2023-01-17T06:55:11.407Z,16.60
2023-01-17T07:00:15.359Z,21.70
2023-01-17T07:05:18.553Z,23.60
2023-01-17T07:10:22.089Z,19.60
2023-01-17T07:15:24.851Z,25.90
2023-01-17T07:20:27.542Z,21.40
2023-01-17T07:25:30.445Z,20.90
2023-01-17T07:30:33.401Z,22.10
2023-01-17T07:35:36.733Z,19.20
2023-01-17T07:40:42.323Z,23.10
2023-01-17T07:45:50.835Z,23.30
2023-01-17T07:50:58.665Z,17.80
2023-01-17T07:56:04.551Z,21.80
2023-01-17T08:01:10.534Z,19.00
2023-01-17T08:06:18.624Z,19.40
2023-01-17T08:11:21.319Z,20.30
2023-01-17T08:16:27.187Z,14.70
2023-01-17T08:21:29.907Z,16.00
2023-01-17T08:26:32.596Z,18.00
2023-01-17T08:31:46.281Z,15.70
2023-01-17T08:36:52.165Z,17.50
2023-01-17T08:41:54.925Z,16.90
2023-01-17T08:46:58.097Z,15.90
2023-01-17T08:52:01.005Z,15.20
2023-01-17T08:57:05.119Z,14.10
2023-01-17T09:02:15.070Z,15.90
2023-01-17T09:07:20.537Z,16.20
2023-01-17T09:12:23.758Z,14.10
2023-01-17T09:17:26.441Z,15.10
2023-01-17T09:22:29.154Z,16.70
2023-01-17T09:27:32.071Z,21.50
2023-01-17T09:32:34.782Z,16.30
2023-01-17T09:37:38.251Z,18.20
2023-01-17T09:42:41.715Z,19.10
2023-01-17T09:47:48.695Z,15.20
2023-01-17T09:58:12.960Z,21.00
2023-01-17T10:03:37.639Z,16.20
2023-01-17T10:08:40.763Z,19.50
2023-01-17T10:14:00.462Z,16.30
2023-01-17T10:19:25.204Z,17.00
2023-01-17T10:24:52.821Z,17.30
2023-01-17T10:29:56.070Z,15.30
2023-01-17T10:35:15.839Z,16.90
2023-01-17T10:40:28.112Z,18.30
2023-01-17T10:45:40.118Z,26.30
2023-01-17T10:51:15.945Z,15.80
2023-01-17T10:56:26.970Z,16.70
2023-01-17T11:01:30.186Z,16.30
2023-01-17T11:06:33.234Z,14.10
2023-01-17T11:11:46.820Z,10.00
2023-01-17T11:17:19.439Z,15.50
2023-01-17T11:22:22.947Z,16.00
2023-01-17T11:27:28.505Z,14.90
2023-01-17T11:32:33.383Z,14.10
2023-01-17T11:37:53.170Z,15.90
2023-01-17T11:43:02.144Z,13.20
2023-01-17T11:48:32.356Z,13.20
2023-01-17T11:53:57.167Z,15.30
2023-01-17T11:59:17.550Z,17.00
2023-01-17T12:04:24.284Z,10.30
2023-01-17T12:10:01.651Z,13.90
2023-01-17T12:15:41.646Z,14.20
2023-01-17T12:21:13.736Z,12.00
2023-01-17T12:26:36.168Z,10.70
2023-01-17T12:32:06.669Z,11.90
2023-01-17T12:37:26.798Z,12.60
2023-01-17T12:42:36.557Z,12.30
2023-01-17T12:47:47.892Z,13.60
2023-01-17T12:53:21.599Z,12.10
2023-01-17T12:58:34.966Z,14.00
2023-01-17T13:04:13.793Z,11.40
2023-01-17T13:09:21.286Z,14.50
2023-01-17T13:14:24.845Z,13.90
2023-01-17T13:19:36.739Z,12.70
2023-01-17T13:24:45.249Z,12.40
2023-01-17T13:30:03.505Z,10.90
2023-01-17T13:35:43.621Z,13.20
2023-01-17T13:40:54.457Z,13.70
2023-01-17T13:46:04.714Z,13.00
2023-01-17T13:51:12.066Z,16.20
2023-01-17T13:56:24.688Z,18.50
2023-01-17T14:01:38.444Z,15.90
2023-01-17T14:06:44.827Z,15.10
2023-01-17T14:12:06.289Z,12.10
2023-01-17T14:17:28.029Z,11.40
2023-01-17T14:22:41.722Z,8.90
2023-01-17T14:27:50.497Z,9.60
2023-01-17T14:32:58.999Z,12.20
2023-01-17T14:38:03.158Z,10.80
2023-01-17T14:43:15.780Z,12.50
2023-01-17T14:48:23.470Z,15.00
2023-01-17T14:53:28.561Z,14.50
2023-01-17T14:58:33.108Z,14.00
2023-01-17T15:03:44.194Z,10.90
2023-01-17T15:08:48.517Z,10.90
2023-01-17T15:13:55.073Z,12.40
2023-01-17T15:18:57.838Z,10.20
2023-01-17T15:24:03.889Z,9.20
2023-01-17T15:29:12.498Z,11.10
2023-01-17T15:34:35.516Z,9.20
2023-01-17T15:39:40.621Z,7.50
2023-01-17T15:44:49.168Z,9.20
2023-01-17T15:49:53.051Z,10.00
2023-01-17T15:55:12.335Z,13.70
2023-01-17T16:00:21.625Z,8.80
2023-01-17T16:05:24.719Z,10.20
2023-01-17T16:10:32.621Z,10.90
2023-01-17T16:15:36.881Z,12.00
2023-01-17T16:20:44.549Z,11.30
2023-01-17T16:25:47.881Z,11.40
2023-01-17T16:30:51.739Z,17.70
2023-01-17T16:35:54.526Z,21.10
2023-01-17T16:40:57.248Z,13.70
2023-01-17T16:46:00.420Z,20.60
2023-01-17T16:51:06.500Z,14.70
2023-01-17T16:56:12.111Z,12.30
2023-01-17T17:01:17.783Z,12.00
2023-01-17T17:06:20.532Z,12.00
2023-01-17T17:11:24.061Z,14.60
2023-01-17T17:16:31.565Z,11.20
2023-01-17T17:21:35.954Z,12.20
2023-01-17T17:26:39.277Z,10.70
2023-01-17T17:31:43.044Z,10.60
2023-01-17T17:36:46.142Z,10.60
2023-01-17T17:41:48.943Z,14.50
2023-01-17T17:46:51.958Z,10.50
2023-01-17T17:51:54.615Z,10.30
2023-01-17T17:56:57.347Z,12.80
2023-01-17T18:02:00.227Z,13.70
2023-01-17T18:07:03.260Z,12.30
2023-01-17T18:12:06.251Z,10.50
2023-01-17T18:17:08.978Z,12.40
2023-01-17T18:22:11.784Z,13.00
2023-01-17T18:27:14.707Z,12.90
2023-01-17T18:32:17.413Z,15.30
2023-01-17T18:37:20.164Z,12.80
2023-01-17T18:42:23.775Z,11.60
2023-01-17T18:47:29.116Z,11.40
2023-01-17T18:52:33.380Z,10.00
2023-01-17T18:57:36.043Z,11.50
2023-01-17T19:02:39.085Z,11.00
2023-01-17T19:07:41.782Z,11.40
2023-01-17T19:12:45.710Z,10.40
2023-01-17T19:17:48.518Z,14.00
2023-01-17T19:22:52.030Z,11.50
2023-01-17T19:27:54.987Z,13.10
2023-01-17T19:32:57.945Z,12.60
2023-01-17T19:38:00.851Z,12.40
2023-01-17T19:43:04.776Z,14.30
2023-01-17T19:48:07.468Z,11.60
2023-01-17T19:53:10.171Z,13.10
2023-01-17T19:58:13.326Z,12.60
2023-01-17T20:03:16.079Z,13.10
2023-01-17T20:08:18.808Z,12.30
2023-01-17T20:13:21.563Z,12.90
2023-01-17T20:18:24.282Z,12.70
2023-01-17T20:23:27.089Z,15.20
2023-01-17T20:28:34.186Z,11.10
2023-01-17T20:33:37.010Z,13.60
2023-01-17T20:38:45.693Z,14.30
2023-01-17T20:43:51.299Z,13.00
2023-01-17T20:48:56.224Z,12.50
2023-01-17T20:54:01.245Z,11.20
2023-01-17T20:59:09.540Z,11.20
2023-01-17T21:04:13.074Z,9.90
2023-01-17T21:09:17.272Z,13.00
2023-01-17T21:14:21.795Z,10.90
2023-01-17T21:19:24.826Z,11.10
2023-01-17T21:24:28.676Z,14.90
2023-01-17T21:29:32.601Z,12.20
2023-01-17T21:34:35.379Z,10.80
2023-01-17T21:39:39.243Z,9.90
2023-01-17T21:44:41.968Z,12.20
2023-01-17T21:49:45.834Z,10.50
2023-01-17T21:55:07.267Z,16.40
2023-01-17T22:00:15.925Z,14.50
2023-01-17T22:05:18.811Z,14.40
2023-01-17T22:10:21.513Z,15.20
2023-01-17T22:15:24.411Z,17.40
2023-01-17T22:20:27.576Z,16.50
2023-01-17T22:25:30.790Z,17.00
2023-01-17T22:30:33.474Z,16.20
2023-01-17T22:35:36.201Z,20.50
2023-01-17T22:40:39.244Z,14.20
2023-01-17T22:45:41.945Z,17.40
2023-01-17T22:50:44.638Z,14.90
2023-01-17T22:55:47.332Z,19.00
2023-01-17T23:00:51.096Z,18.40
2023-01-17T23:05:53.886Z,27.60
2023-01-17T23:11:15.240Z,21.60
2023-01-17T23:16:36.412Z,22.60
2023-01-17T23:21:57.763Z,21.90
2023-01-17T23:27:19.320Z,17.90
2023-01-17T23:32:22.530Z,16.30
2023-01-17T23:37:48.357Z,12.10
2023-01-17T23:43:09.447Z,18.20
2023-01-17T23:48:12.391Z,16.70
2023-01-17T23:53:23.633Z,15.10
2023-01-17T23:58:27.589Z,13.80
